Accueil
METAR-TAF:

METAR-TAF

Aéroports :

Seyresse

Dax, France

latitude: 43-41N, longitude: 001-04W, altitude: 32 m

Observation

Le bulletin a été fait il y a 1 heure et 32 minutes, à 13:00 UTC
Vent 4 kt de sud
Température 12°C
Humidité 71%
Pression 1028 hPa
Visibilité 10 km ou plus
Quelques nuages à une hauteur de 3600 ft
Nuages épars à une hauteur de 6000 ft
Nuages fragmentés à une hauteur de 30000 ft

METAR: LFBY 171300Z 18004KT 9999 FEW036 SCT060 BKN300 12/07 Q1028

Heure: 15:32 (14:32 UTC)

Prévision

Le bulletin a été fait il y a 6 heures et 32 minutes, à 08:00 UTC
Prévision valable du 17 à 09 UTC au 17 à 18 UTC
Vent 4 kt de sud
Visibilité 10 km ou plus
Quelques nuages à une hauteur de 3000 ft
Nuages épars à une hauteur de 4000 ft

TAF: LFBY 170800Z 1709/1718 18004KT 9999 FEW030 SCT040

Observations et prévisions météorologiques de plus de 4000 aéroports (messages METAR et TAF).

Les stations disponibles sont représentées par des disques jaunes et rouges sur la carte.

Passer la souris dessus pour voir le nom de la station.

Cliquer dessus pour voir les observations et prévisions météorologiques.

Pour changer de carte: cliquez sur les boutons verts avec une croix noire pour zoomer, sur le bouton vert avec un tiret pour effectuer un zoom arrière, ou sur les flèches vertes pour les cartes adjacentes.


METAR-TAF: